sensor_id;sensor_type;location;lat;lon;timestamp;P1;durP1;ratioP1;P2;durP2;ratioP2
12212;SDS011;6169;44.158;22.788;2023-07-13T00:01:58;16.23;;;9.60;;
12212;SDS011;6169;44.158;22.788;2023-07-13T00:07:00;16.88;;;9.15;;
12212;SDS011;6169;44.158;22.788;2023-07-13T00:12:05;14.35;;;10.65;;
12212;SDS011;6169;44.158;22.788;2023-07-13T00:17:22;14.05;;;10.63;;
12212;SDS011;6169;44.158;22.788;2023-07-13T00:22:25;19.58;;;11.15;;
12212;SDS011;6169;44.158;22.788;2023-07-13T00:27:29;11.43;;;9.00;;
12212;SDS011;6169;44.158;22.788;2023-07-13T00:32:32;10.43;;;8.52;;
12212;SDS011;6169;44.158;22.788;2023-07-13T00:37:34;12.18;;;9.07;;
12212;SDS011;6169;44.158;22.788;2023-07-13T00:42:38;11.68;;;9.35;;
12212;SDS011;6169;44.158;22.788;2023-07-13T00:47:40;12.98;;;9.85;;
12212;SDS011;6169;44.158;22.788;2023-07-13T00:52:43;10.50;;;8.85;;
12212;SDS011;6169;44.158;22.788;2023-07-13T00:57:49;13.32;;;10.07;;
12212;SDS011;6169;44.158;22.788;2023-07-13T01:02:51;12.73;;;10.52;;
12212;SDS011;6169;44.158;22.788;2023-07-13T01:07:54;10.57;;;9.45;;
12212;SDS011;6169;44.158;22.788;2023-07-13T01:12:58;15.82;;;11.20;;
12212;SDS011;6169;44.158;22.788;2023-07-13T01:18:00;10.27;;;9.18;;
12212;SDS011;6169;44.158;22.788;2023-07-13T01:23:05;11.95;;;9.43;;
12212;SDS011;6169;44.158;22.788;2023-07-13T01:28:09;15.35;;;11.73;;
12212;SDS011;6169;44.158;22.788;2023-07-13T01:33:11;12.68;;;10.32;;
12212;SDS011;6169;44.158;22.788;2023-07-13T01:38:16;11.25;;;10.00;;
12212;SDS011;6169;44.158;22.788;2023-07-13T01:43:19;13.13;;;10.90;;
12212;SDS011;6169;44.158;22.788;2023-07-13T01:48:21;19.92;;;12.18;;
12212;SDS011;6169;44.158;22.788;2023-07-13T01:53:25;15.00;;;10.00;;
12212;SDS011;6169;44.158;22.788;2023-07-13T01:58:27;15.93;;;12.30;;
12212;SDS011;6169;44.158;22.788;2023-07-13T02:03:29;13.10;;;11.02;;
12212;SDS011;6169;44.158;22.788;2023-07-13T02:08:33;19.17;;;11.07;;
12212;SDS011;6169;44.158;22.788;2023-07-13T02:13:35;12.32;;;11.13;;
12212;SDS011;6169;44.158;22.788;2023-07-13T02:18:37;13.80;;;11.90;;
12212;SDS011;6169;44.158;22.788;2023-07-13T02:23:41;13.27;;;11.93;;
12212;SDS011;6169;44.158;22.788;2023-07-13T02:28:43;12.18;;;11.00;;
12212;SDS011;6169;44.158;22.788;2023-07-13T02:33:45;18.88;;;11.63;;
12212;SDS011;6169;44.158;22.788;2023-07-13T02:38:50;14.70;;;11.52;;
12212;SDS011;6169;44.158;22.788;2023-07-13T02:43:52;14.45;;;11.93;;
12212;SDS011;6169;44.158;22.788;2023-07-13T02:48:54;15.45;;;11.93;;
12212;SDS011;6169;44.158;22.788;2023-07-13T02:53:58;16.65;;;10.85;;
12212;SDS011;6169;44.158;22.788;2023-07-13T02:59:00;13.18;;;10.90;;
12212;SDS011;6169;44.158;22.788;2023-07-13T03:04:03;15.27;;;11.18;;
12212;SDS011;6169;44.158;22.788;2023-07-13T03:09:07;14.10;;;11.30;;
12212;SDS011;6169;44.158;22.788;2023-07-13T03:14:09;12.20;;;10.75;;
12212;SDS011;6169;44.158;22.788;2023-07-13T03:19:11;12.60;;;10.98;;
12212;SDS011;6169;44.158;22.788;2023-07-13T03:24:15;15.07;;;11.00;;
12212;SDS011;6169;44.158;22.788;2023-07-13T03:29:17;28.27;;;11.43;;
12212;SDS011;6169;44.158;22.788;2023-07-13T03:34:19;17.98;;;11.52;;
12212;SDS011;6169;44.158;22.788;2023-07-13T03:39:23;23.60;;;13.43;;
12212;SDS011;6169;44.158;22.788;2023-07-13T03:44:25;13.10;;;11.15;;
12212;SDS011;6169;44.158;22.788;2023-07-13T03:49:27;15.38;;;12.15;;
12212;SDS011;6169;44.158;22.788;2023-07-13T03:54:31;18.85;;;14.00;;
12212;SDS011;6169;44.158;22.788;2023-07-13T03:59:33;16.25;;;13.77;;
12212;SDS011;6169;44.158;22.788;2023-07-13T04:04:35;15.80;;;14.10;;
12212;SDS011;6169;44.158;22.788;2023-07-13T04:09:42;14.38;;;12.68;;
12212;SDS011;6169;44.158;22.788;2023-07-13T04:14:44;15.98;;;11.45;;
12212;SDS011;6169;44.158;22.788;2023-07-13T04:19:46;15.38;;;12.80;;
12212;SDS011;6169;44.158;22.788;2023-07-13T04:24:50;15.63;;;13.15;;
12212;SDS011;6169;44.158;22.788;2023-07-13T04:29:52;15.65;;;11.15;;
12212;SDS011;6169;44.158;22.788;2023-07-13T04:34:55;12.30;;;9.35;;
12212;SDS011;6169;44.158;22.788;2023-07-13T04:40:00;14.07;;;9.45;;
12212;SDS011;6169;44.158;22.788;2023-07-13T04:45:04;11.73;;;9.52;;
12212;SDS011;6169;44.158;22.788;2023-07-13T04:50:08;10.80;;;9.55;;
12212;SDS011;6169;44.158;22.788;2023-07-13T04:55:13;24.63;;;21.10;;
12212;SDS011;6169;44.158;22.788;2023-07-13T05:00:15;17.52;;;15.73;;
12212;SDS011;6169;44.158;22.788;2023-07-13T05:05:17;15.02;;;10.65;;
12212;SDS011;6169;44.158;22.788;2023-07-13T05:10:21;14.50;;;8.82;;
12212;SDS011;6169;44.158;22.788;2023-07-13T05:15:24;9.77;;;8.45;;
12212;SDS011;6169;44.158;22.788;2023-07-13T05:20:26;9.52;;;7.35;;
12212;SDS011;6169;44.158;22.788;2023-07-13T05:25:30;15.70;;;8.18;;
12212;SDS011;6169;44.158;22.788;2023-07-13T05:30:32;12.45;;;10.43;;
12212;SDS011;6169;44.158;22.788;2023-07-13T05:35:34;16.20;;;8.85;;
12212;SDS011;6169;44.158;22.788;2023-07-13T05:40:38;11.25;;;9.18;;
12212;SDS011;6169;44.158;22.788;2023-07-13T05:45:40;13.27;;;9.63;;
12212;SDS011;6169;44.158;22.788;2023-07-13T05:50:43;10.27;;;8.23;;
12212;SDS011;6169;44.158;22.788;2023-07-13T05:55:47;14.13;;;9.10;;
12212;SDS011;6169;44.158;22.788;2023-07-13T06:00:57;12.20;;;9.85;;
12212;SDS011;6169;44.158;22.788;2023-07-13T06:06:02;11.02;;;9.90;;
12212;SDS011;6169;44.158;22.788;2023-07-13T06:11:06;11.00;;;9.93;;
12212;SDS011;6169;44.158;22.788;2023-07-13T06:16:11;13.10;;;10.32;;
12212;SDS011;6169;44.158;22.788;2023-07-13T06:21:15;11.27;;;10.13;;
12212;SDS011;6169;44.158;22.788;2023-07-13T06:26:20;12.48;;;10.13;;
12212;SDS011;6169;44.158;22.788;2023-07-13T06:31:22;23.05;;;10.82;;
12212;SDS011;6169;44.158;22.788;2023-07-13T06:36:24;12.63;;;10.45;;
12212;SDS011;6169;44.158;22.788;2023-07-13T06:41:28;19.75;;;11.80;;
12212;SDS011;6169;44.158;22.788;2023-07-13T06:46:30;12.35;;;10.15;;
12212;SDS011;6169;44.158;22.788;2023-07-13T06:51:33;14.02;;;10.50;;
12212;SDS011;6169;44.158;22.788;2023-07-13T06:56:36;15.82;;;11.43;;
12212;SDS011;6169;44.158;22.788;2023-07-13T07:01:38;12.25;;;11.05;;
12212;SDS011;6169;44.158;22.788;2023-07-13T07:06:40;18.48;;;14.43;;
12212;SDS011;6169;44.158;22.788;2023-07-13T07:11:44;11.40;;;8.45;;
12212;SDS011;6169;44.158;22.788;2023-07-13T07:16:46;10.55;;;7.85;;
12212;SDS011;6169;44.158;22.788;2023-07-13T07:21:48;11.40;;;7.07;;
12212;SDS011;6169;44.158;22.788;2023-07-13T07:26:52;8.57;;;6.93;;
12212;SDS011;6169;44.158;22.788;2023-07-13T07:31:54;15.70;;;9.10;;
12212;SDS011;6169;44.158;22.788;2023-07-13T07:36:58;13.20;;;11.20;;
12212;SDS011;6169;44.158;22.788;2023-07-13T07:42:03;15.82;;;13.00;;
12212;SDS011;6169;44.158;22.788;2023-07-13T07:47:05;18.35;;;11.50;;
12212;SDS011;6169;44.158;22.788;2023-07-13T07:52:08;17.45;;;11.88;;
12212;SDS011;6169;44.158;22.788;2023-07-13T07:57:11;14.30;;;10.80;;
12212;SDS011;6169;44.158;22.788;2023-07-13T08:02:13;14.13;;;11.30;;
12212;SDS011;6169;44.158;22.788;2023-07-13T08:07:16;14.70;;;10.80;;
12212;SDS011;6169;44.158;22.788;2023-07-13T08:12:19;16.58;;;9.68;;
12212;SDS011;6169;44.158;22.788;2023-07-13T08:17:21;14.77;;;9.15;;
12212;SDS011;6169;44.158;22.788;2023-07-13T08:22:24;11.57;;;7.82;;
12212;SDS011;6169;44.158;22.788;2023-07-13T08:27:28;68.38;;;60.33;;
12212;SDS011;6169;44.158;22.788;2023-07-13T08:32:30;20.88;;;17.30;;
12212;SDS011;6169;44.158;22.788;2023-07-13T08:37:32;12.65;;;10.02;;
12212;SDS011;6169;44.158;22.788;2023-07-13T08:42:37;5.80;;;5.00;;
12212;SDS011;6169;44.158;22.788;2023-07-13T08:47:44;13.07;;;7.88;;
12212;SDS011;6169;44.158;22.788;2023-07-13T08:52:53;11.13;;;5.20;;
12212;SDS011;6169;44.158;22.788;2023-07-13T08:58:02;11.73;;;5.35;;
12212;SDS011;6169;44.158;22.788;2023-07-13T09:03:12;16.35;;;11.27;;
12212;SDS011;6169;44.158;22.788;2023-07-13T09:08:31;8.82;;;4.43;;
12212;SDS011;6169;44.158;22.788;2023-07-13T09:13:43;8.60;;;5.35;;
12212;SDS011;6169;44.158;22.788;2023-07-13T09:18:54;11.30;;;5.88;;
12212;SDS011;6169;44.158;22.788;2023-07-13T09:24:04;10.52;;;4.97;;
12212;SDS011;6169;44.158;22.788;2023-07-13T09:29:30;7.18;;;4.43;;
12212;SDS011;6169;44.158;22.788;2023-07-13T09:34:35;8.27;;;5.33;;
12212;SDS011;6169;44.158;22.788;2023-07-13T09:39:38;9.38;;;4.57;;
12212;SDS011;6169;44.158;22.788;2023-07-13T09:44:50;12.13;;;5.38;;
12212;SDS011;6169;44.158;22.788;2023-07-13T09:49:55;7.82;;;4.13;;
12212;SDS011;6169;44.158;22.788;2023-07-13T09:54:58;12.10;;;4.88;;
12212;SDS011;6169;44.158;22.788;2023-07-13T10:00:02;10.60;;;5.15;;
12212;SDS011;6169;44.158;22.788;2023-07-13T10:05:06;9.88;;;4.60;;
12212;SDS011;6169;44.158;22.788;2023-07-13T10:10:13;5.40;;;4.15;;
12212;SDS011;6169;44.158;22.788;2023-07-13T10:15:19;8.35;;;4.55;;
12212;SDS011;6169;44.158;22.788;2023-07-13T10:20:25;8.30;;;3.67;;
12212;SDS011;6169;44.158;22.788;2023-07-13T10:25:29;7.75;;;3.72;;
12212;SDS011;6169;44.158;22.788;2023-07-13T10:30:38;8.20;;;4.18;;
12212;SDS011;6169;44.158;22.788;2023-07-13T10:35:43;10.25;;;4.20;;
12212;SDS011;6169;44.158;22.788;2023-07-13T10:40:49;5.88;;;3.72;;
12212;SDS011;6169;44.158;22.788;2023-07-13T10:45:59;7.93;;;4.07;;
12212;SDS011;6169;44.158;22.788;2023-07-13T10:51:03;8.57;;;3.80;;
12212;SDS011;6169;44.158;22.788;2023-07-13T10:56:17;5.28;;;3.80;;
12212;SDS011;6169;44.158;22.788;2023-07-13T11:06:40;10.18;;;3.97;;
12212;SDS011;6169;44.158;22.788;2023-07-13T11:11:45;7.80;;;3.53;;
12212;SDS011;6169;44.158;22.788;2023-07-13T11:16:48;26.90;;;5.93;;
12212;SDS011;6169;44.158;22.788;2023-07-13T11:22:02;8.02;;;4.00;;
12212;SDS011;6169;44.158;22.788;2023-07-13T11:27:20;9.70;;;3.92;;
12212;SDS011;6169;44.158;22.788;2023-07-13T11:32:30;8.48;;;4.22;;
12212;SDS011;6169;44.158;22.788;2023-07-13T11:37:33;10.90;;;3.53;;
12212;SDS011;6169;44.158;22.788;2023-07-13T11:42:35;7.72;;;3.28;;
12212;SDS011;6169;44.158;22.788;2023-07-13T11:47:42;7.63;;;3.65;;
12212;SDS011;6169;44.158;22.788;2023-07-13T11:52:44;4.97;;;3.60;;
12212;SDS011;6169;44.158;22.788;2023-07-13T11:57:48;11.90;;;3.50;;
12212;SDS011;6169;44.158;22.788;2023-07-13T12:02:55;8.00;;;4.25;;
12212;SDS011;6169;44.158;22.788;2023-07-13T12:08:08;6.93;;;4.05;;
12212;SDS011;6169;44.158;22.788;2023-07-13T12:13:11;7.18;;;3.47;;
12212;SDS011;6169;44.158;22.788;2023-07-13T12:18:16;6.05;;;3.88;;
12212;SDS011;6169;44.158;22.788;2023-07-13T12:23:22;9.55;;;3.58;;
12212;SDS011;6169;44.158;22.788;2023-07-13T12:28:31;9.70;;;3.63;;
12212;SDS011;6169;44.158;22.788;2023-07-13T12:33:39;10.93;;;3.75;;
12212;SDS011;6169;44.158;22.788;2023-07-13T12:43:48;11.10;;;3.67;;
12212;SDS011;6169;44.158;22.788;2023-07-13T12:48:52;7.53;;;3.80;;
12212;SDS011;6169;44.158;22.788;2023-07-13T12:53:57;10.30;;;3.97;;
12212;SDS011;6169;44.158;22.788;2023-07-13T12:59:08;7.72;;;3.60;;
12212;SDS011;6169;44.158;22.788;2023-07-13T13:04:20;6.10;;;3.72;;
12212;SDS011;6169;44.158;22.788;2023-07-13T13:09:23;6.38;;;3.85;;
12212;SDS011;6169;44.158;22.788;2023-07-13T13:14:25;7.00;;;3.65;;
12212;SDS011;6169;44.158;22.788;2023-07-13T13:19:29;8.23;;;3.97;;
12212;SDS011;6169;44.158;22.788;2023-07-13T13:24:31;7.40;;;3.70;;
12212;SDS011;6169;44.158;22.788;2023-07-13T13:29:34;8.10;;;3.65;;
12212;SDS011;6169;44.158;22.788;2023-07-13T13:34:42;8.43;;;3.20;;
12212;SDS011;6169;44.158;22.788;2023-07-13T13:39:44;6.20;;;3.53;;
12212;SDS011;6169;44.158;22.788;2023-07-13T13:44:47;17.42;;;4.03;;
12212;SDS011;6169;44.158;22.788;2023-07-13T13:49:50;14.18;;;4.18;;
12212;SDS011;6169;44.158;22.788;2023-07-13T13:54:53;4.82;;;3.67;;
12212;SDS011;6169;44.158;22.788;2023-07-13T13:59:56;26.17;;;4.90;;
12212;SDS011;6169;44.158;22.788;2023-07-13T14:05:00;13.90;;;4.00;;
12212;SDS011;6169;44.158;22.788;2023-07-13T14:10:10;7.78;;;3.85;;
12212;SDS011;6169;44.158;22.788;2023-07-13T14:15:17;4.25;;;3.00;;
12212;SDS011;6169;44.158;22.788;2023-07-13T14:20:23;13.40;;;4.82;;
12212;SDS011;6169;44.158;22.788;2023-07-13T14:25:27;12.32;;;3.53;;
12212;SDS011;6169;44.158;22.788;2023-07-13T14:30:29;8.40;;;3.88;;
12212;SDS011;6169;44.158;22.788;2023-07-13T14:35:33;10.07;;;4.43;;
12212;SDS011;6169;44.158;22.788;2023-07-13T14:40:35;14.20;;;5.57;;
12212;SDS011;6169;44.158;22.788;2023-07-13T14:45:38;17.92;;;6.15;;
12212;SDS011;6169;44.158;22.788;2023-07-13T14:50:44;13.07;;;4.90;;
12212;SDS011;6169;44.158;22.788;2023-07-13T14:55:47;27.77;;;6.97;;
12212;SDS011;6169;44.158;22.788;2023-07-13T15:00:49;23.52;;;10.30;;
12212;SDS011;6169;44.158;22.788;2023-07-13T15:05:56;15.55;;;8.25;;
12212;SDS011;6169;44.158;22.788;2023-07-13T15:10:59;19.70;;;12.18;;
12212;SDS011;6169;44.158;22.788;2023-07-13T15:16:01;5.90;;;5.30;;
12212;SDS011;6169;44.158;22.788;2023-07-13T15:21:08;8.00;;;5.03;;
12212;SDS011;6169;44.158;22.788;2023-07-13T15:26:14;29.45;;;7.72;;
12212;SDS011;6169;44.158;22.788;2023-07-13T15:31:19;35.83;;;8.48;;
12212;SDS011;6169;44.158;22.788;2023-07-13T15:36:24;30.55;;;9.25;;
12212;SDS011;6169;44.158;22.788;2023-07-13T15:41:27;35.17;;;9.77;;
12212;SDS011;6169;44.158;22.788;2023-07-13T15:46:30;25.08;;;7.53;;
12212;SDS011;6169;44.158;22.788;2023-07-13T15:51:33;22.38;;;6.43;;
12212;SDS011;6169;44.158;22.788;2023-07-13T15:56:36;25.73;;;6.80;;
12212;SDS011;6169;44.158;22.788;2023-07-13T16:01:40;23.20;;;6.93;;
12212;SDS011;6169;44.158;22.788;2023-07-13T16:06:47;56.88;;;10.10;;
12212;SDS011;6169;44.158;22.788;2023-07-13T16:11:51;53.88;;;10.15;;
12212;SDS011;6169;44.158;22.788;2023-07-13T16:16:56;23.45;;;7.00;;
12212;SDS011;6169;44.158;22.788;2023-07-13T16:21:59;32.42;;;7.97;;
12212;SDS011;6169;44.158;22.788;2023-07-13T16:27:06;32.30;;;8.15;;
12212;SDS011;6169;44.158;22.788;2023-07-13T16:32:10;13.50;;;7.20;;
12212;SDS011;6169;44.158;22.788;2023-07-13T16:37:16;23.90;;;7.70;;
12212;SDS011;6169;44.158;22.788;2023-07-13T16:42:21;14.98;;;7.82;;
12212;SDS011;6169;44.158;22.788;2023-07-13T16:47:23;44.85;;;9.50;;
12212;SDS011;6169;44.158;22.788;2023-07-13T16:52:27;27.13;;;8.48;;
12212;SDS011;6169;44.158;22.788;2023-07-13T16:57:31;39.97;;;10.55;;
12212;SDS011;6169;44.158;22.788;2023-07-13T17:02:34;34.50;;;8.52;;
12212;SDS011;6169;44.158;22.788;2023-07-13T17:07:40;36.67;;;7.57;;
12212;SDS011;6169;44.158;22.788;2023-07-13T17:12:43;60.58;;;12.52;;
12212;SDS011;6169;44.158;22.788;2023-07-13T17:17:45;57.05;;;11.57;;
12212;SDS011;6169;44.158;22.788;2023-07-13T17:22:52;51.40;;;11.65;;
12212;SDS011;6169;44.158;22.788;2023-07-13T17:27:55;135.52;;;21.17;;
12212;SDS011;6169;44.158;22.788;2023-07-13T17:32:57;105.90;;;19.90;;
12212;SDS011;6169;44.158;22.788;2023-07-13T17:38:02;186.30;;;30.55;;
12212;SDS011;6169;44.158;22.788;2023-07-13T17:43:06;219.45;;;33.78;;
12212;SDS011;6169;44.158;22.788;2023-07-13T17:48:08;170.40;;;26.23;;
12212;SDS011;6169;44.158;22.788;2023-07-13T17:53:14;158.70;;;26.73;;
12212;SDS011;6169;44.158;22.788;2023-07-13T17:58:18;139.10;;;20.08;;
12212;SDS011;6169;44.158;22.788;2023-07-13T18:03:22;140.32;;;20.75;;
12212;SDS011;6169;44.158;22.788;2023-07-13T18:08:33;74.97;;;14.57;;
12212;SDS011;6169;44.158;22.788;2023-07-13T18:13:35;99.05;;;15.05;;
12212;SDS011;6169;44.158;22.788;2023-07-13T18:18:40;85.30;;;17.95;;
12212;SDS011;6169;44.158;22.788;2023-07-13T18:23:44;101.65;;;16.80;;
12212;SDS011;6169;44.158;22.788;2023-07-13T18:28:47;132.95;;;21.63;;
12212;SDS011;6169;44.158;22.788;2023-07-13T18:33:50;148.68;;;23.23;;
12212;SDS011;6169;44.158;22.788;2023-07-13T18:38:57;118.57;;;19.45;;
12212;SDS011;6169;44.158;22.788;2023-07-13T18:44:00;115.57;;;17.60;;
12212;SDS011;6169;44.158;22.788;2023-07-13T18:49:02;84.35;;;16.23;;
12212;SDS011;6169;44.158;22.788;2023-07-13T18:54:08;74.95;;;14.55;;
12212;SDS011;6169;44.158;22.788;2023-07-13T18:59:13;76.57;;;14.10;;
12212;SDS011;6169;44.158;22.788;2023-07-13T19:04:23;119.20;;;20.88;;
12212;SDS011;6169;44.158;22.788;2023-07-13T19:09:30;71.03;;;15.07;;
12212;SDS011;6169;44.158;22.788;2023-07-13T19:14:33;81.18;;;15.98;;
12212;SDS011;6169;44.158;22.788;2023-07-13T19:19:35;68.13;;;15.15;;
12212;SDS011;6169;44.158;22.788;2023-07-13T19:24:39;51.33;;;12.85;;
12212;SDS011;6169;44.158;22.788;2023-07-13T19:29:41;42.78;;;12.23;;
12212;SDS011;6169;44.158;22.788;2023-07-13T19:34:44;40.42;;;12.18;;
12212;SDS011;6169;44.158;22.788;2023-07-13T19:39:47;23.30;;;8.35;;
12212;SDS011;6169;44.158;22.788;2023-07-13T19:44:53;20.23;;;8.82;;
12212;SDS011;6169;44.158;22.788;2023-07-13T19:49:56;27.88;;;8.80;;
12212;SDS011;6169;44.158;22.788;2023-07-13T19:55:01;37.03;;;10.40;;
12212;SDS011;6169;44.158;22.788;2023-07-13T20:00:13;32.47;;;9.18;;
12212;SDS011;6169;44.158;22.788;2023-07-13T20:05:18;20.65;;;9.63;;
12212;SDS011;6169;44.158;22.788;2023-07-13T20:10:24;23.02;;;8.85;;
12212;SDS011;6169;44.158;22.788;2023-07-13T20:15:30;20.05;;;8.52;;
12212;SDS011;6169;44.158;22.788;2023-07-13T20:20:34;19.75;;;8.70;;
12212;SDS011;6169;44.158;22.788;2023-07-13T20:25:45;15.05;;;8.77;;
12212;SDS011;6169;44.158;22.788;2023-07-13T20:30:49;16.67;;;7.68;;
12212;SDS011;6169;44.158;22.788;2023-07-13T20:35:54;19.05;;;8.25;;
12212;SDS011;6169;44.158;22.788;2023-07-13T20:41:03;15.02;;;8.57;;
12212;SDS011;6169;44.158;22.788;2023-07-13T20:46:08;17.30;;;7.72;;
12212;SDS011;6169;44.158;22.788;2023-07-13T20:51:14;14.68;;;7.10;;
12212;SDS011;6169;44.158;22.788;2023-07-13T20:56:20;11.07;;;7.20;;
12212;SDS011;6169;44.158;22.788;2023-07-13T21:01:25;14.48;;;7.00;;
12212;SDS011;6169;44.158;22.788;2023-07-13T21:06:30;9.90;;;6.97;;
12212;SDS011;6169;44.158;22.788;2023-07-13T21:11:35;12.05;;;6.55;;
12212;SDS011;6169;44.158;22.788;2023-07-13T21:16:37;8.45;;;6.55;;
12212;SDS011;6169;44.158;22.788;2023-07-13T21:21:39;10.90;;;7.22;;
12212;SDS011;6169;44.158;22.788;2023-07-13T21:26:43;10.68;;;6.30;;
12212;SDS011;6169;44.158;22.788;2023-07-13T21:31:45;10.93;;;6.43;;
12212;SDS011;6169;44.158;22.788;2023-07-13T21:36:47;18.92;;;7.55;;
12212;SDS011;6169;44.158;22.788;2023-07-13T21:41:52;23.65;;;8.63;;
12212;SDS011;6169;44.158;22.788;2023-07-13T21:46:55;14.93;;;7.25;;
12212;SDS011;6169;44.158;22.788;2023-07-13T21:51:57;16.02;;;8.05;;
12212;SDS011;6169;44.158;22.788;2023-07-13T21:57:01;20.50;;;8.77;;
12212;SDS011;6169;44.158;22.788;2023-07-13T22:02:03;16.20;;;8.60;;
12212;SDS011;6169;44.158;22.788;2023-07-13T22:07:07;8.98;;;6.15;;
12212;SDS011;6169;44.158;22.788;2023-07-13T22:12:12;11.75;;;7.38;;
12212;SDS011;6169;44.158;22.788;2023-07-13T22:17:14;24.15;;;7.65;;
12212;SDS011;6169;44.158;22.788;2023-07-13T22:22:17;13.63;;;7.30;;
12212;SDS011;6169;44.158;22.788;2023-07-13T22:27:22;13.38;;;8.38;;
12212;SDS011;6169;44.158;22.788;2023-07-13T22:32:33;10.82;;;7.32;;
12212;SDS011;6169;44.158;22.788;2023-07-13T22:37:37;12.13;;;7.00;;
12212;SDS011;6169;44.158;22.788;2023-07-13T22:42:51;14.07;;;7.63;;
12212;SDS011;6169;44.158;22.788;2023-07-13T22:47:54;15.13;;;8.17;;
12212;SDS011;6169;44.158;22.788;2023-07-13T22:52:57;14.18;;;7.35;;
12212;SDS011;6169;44.158;22.788;2023-07-13T22:58:02;11.95;;;7.38;;
12212;SDS011;6169;44.158;22.788;2023-07-13T23:03:06;13.57;;;7.03;;
12212;SDS011;6169;44.158;22.788;2023-07-13T23:08:21;13.05;;;7.30;;
12212;SDS011;6169;44.158;22.788;2023-07-13T23:13:34;10.65;;;7.45;;
12212;SDS011;6169;44.158;22.788;2023-07-13T23:18:37;13.15;;;7.75;;
12212;SDS011;6169;44.158;22.788;2023-07-13T23:23:41;16.92;;;7.47;;
12212;SDS011;6169;44.158;22.788;2023-07-13T23:28:46;10.93;;;7.90;;
12212;SDS011;6169;44.158;22.788;2023-07-13T23:33:50;12.00;;;7.57;;
12212;SDS011;6169;44.158;22.788;2023-07-13T23:38:52;9.75;;;7.10;;
12212;SDS011;6169;44.158;22.788;2023-07-13T23:43:56;14.10;;;8.10;;
12212;SDS011;6169;44.158;22.788;2023-07-13T23:49:00;14.35;;;7.70;;
12212;SDS011;6169;44.158;22.788;2023-07-13T23:54:08;11.80;;;7.78;;
12212;SDS011;6169;44.158;22.788;2023-07-13T23:59:14;11.35;;;8.95;;
